Portada
METAR-TAF:

METAR-TAF

Aeroports :

Kuching, Malàisia

latitud: 01-29N, longitud: 110-20E, altitud: 27 m

Observació

L'informe es va fer fa 30 minuts, a les 12:30 UTC
Vent 5 kt del Oest/Sud-Oest, variant entre Sud i Oest/Nord-Oest
Temperatura 27°C
Humitat 84%
Pressió 1007 hPa
Visibilitat 10 km o més
Núvols disperses a una alçada de 2000 ft

METAR: WBGG 141230Z 24005KT 180V300 9999 SCT020 27/24 Q1007 NOSIG

Hora: 21:00 (13:00 UTC)

Pronòstic

L'informe es va fer fa 2 hores i 0 minuts, a les 11:00 UTC
Pronòstic vàlid del 14 a les 12 UTC al 15 a les 12 UTC
Vent 5 kt del Sud
Visibilitat 10 km o més
Núvols disperses a una alçada de 2000 ft
Temporalment
l' 14 a les 12 UTC al 14 a les 16 UTC
Visibilitat: 5000 m
Escasses núvols a una alçada de 1500 ft, Cumulonimbus.
xàfecs de pluja

TAF: WBGG 141100Z 1412/1512 19005KT 9999 SCT020 TEMPO 1412/1416 5000 SHRA FEW015CB

Observacions i pronòstics meteorològics de més de 4000 aeroports (METAR i TAF).

Les estacions disponibles són els punts grocs i vermells al mapa.

Posi el ratolí al punt desitjat per veure el nom de l'estació.

Feu clic per veure les observacions i els pronòstics meteorològics.

Per canviar el mapa: feu clic els botons verds amb una creu de color negre per apropar; al botó verd amb un guió per allunyar la imatge; o en les fletxes verdes per a mapes adjacents.


METAR-TAF: